sensor_id;sensor_type;location;lat;lon;timestamp;P1;durP1;ratioP1;P2;durP2;ratioP2
51692;SDS011;37777;53.066;21.638;2022-12-29T00:05:10;15.85;;;7.93;;
51692;SDS011;37777;53.066;21.638;2022-12-29T00:12:12;17.30;;;9.05;;
51692;SDS011;37777;53.066;21.638;2022-12-29T00:19:14;18.90;;;8.63;;
51692;SDS011;37777;53.066;21.638;2022-12-29T00:26:35;14.95;;;7.63;;
51692;SDS011;37777;53.066;21.638;2022-12-29T00:33:56;13.18;;;7.05;;
51692;SDS011;37777;53.066;21.638;2022-12-29T00:41:21;15.48;;;7.47;;
51692;SDS011;37777;53.066;21.638;2022-12-29T00:48:42;17.25;;;7.85;;
51692;SDS011;37777;53.066;21.638;2022-12-29T00:56:02;14.38;;;7.50;;
51692;SDS011;37777;53.066;21.638;2022-12-29T01:03:04;14.70;;;7.72;;
51692;SDS011;37777;53.066;21.638;2022-12-29T01:10:07;15.90;;;7.63;;
51692;SDS011;37777;53.066;21.638;2022-12-29T01:17:12;16.05;;;7.97;;
51692;SDS011;37777;53.066;21.638;2022-12-29T01:24:14;13.82;;;7.43;;
51692;SDS011;37777;53.066;21.638;2022-12-29T01:31:18;21.48;;;8.45;;
51692;SDS011;37777;53.066;21.638;2022-12-29T01:38:20;19.60;;;8.20;;
51692;SDS011;37777;53.066;21.638;2022-12-29T01:45:22;18.02;;;7.38;;
51692;SDS011;37777;53.066;21.638;2022-12-29T01:52:25;16.00;;;7.22;;
51692;SDS011;37777;53.066;21.638;2022-12-29T01:59:30;16.27;;;7.32;;
51692;SDS011;37777;53.066;21.638;2022-12-29T02:06:36;14.68;;;7.00;;
51692;SDS011;37777;53.066;21.638;2022-12-29T02:13:43;13.90;;;6.50;;
51692;SDS011;37777;53.066;21.638;2022-12-29T02:20:50;11.63;;;6.88;;
51692;SDS011;37777;53.066;21.638;2022-12-29T02:42:47;14.55;;;6.20;;
51692;SDS011;37777;53.066;21.638;2022-12-29T02:49:57;12.88;;;6.30;;
51692;SDS011;37777;53.066;21.638;2022-12-29T02:57:12;11.27;;;6.65;;
51692;SDS011;37777;53.066;21.638;2022-12-29T03:12:03;9.47;;;5.60;;
51692;SDS011;37777;53.066;21.638;2022-12-29T03:19:50;9.75;;;6.30;;
51692;SDS011;37777;53.066;21.638;2022-12-29T03:26:54;14.85;;;6.32;;
51692;SDS011;37777;53.066;21.638;2022-12-29T03:33:58;8.75;;;5.93;;
51692;SDS011;37777;53.066;21.638;2022-12-29T03:41:03;15.65;;;7.32;;
51692;SDS011;37777;53.066;21.638;2022-12-29T03:48:07;15.75;;;6.55;;
51692;SDS011;37777;53.066;21.638;2022-12-29T03:55:09;12.93;;;6.60;;
51692;SDS011;37777;53.066;21.638;2022-12-29T04:02:11;10.30;;;6.57;;
51692;SDS011;37777;53.066;21.638;2022-12-29T04:09:14;14.52;;;6.43;;
51692;SDS011;37777;53.066;21.638;2022-12-29T04:16:17;5.30;;;4.18;;
51692;SDS011;37777;53.066;21.638;2022-12-29T04:23:20;10.70;;;6.72;;
51692;SDS011;37777;53.066;21.638;2022-12-29T04:30:22;15.40;;;7.30;;
51692;SDS011;37777;53.066;21.638;2022-12-29T04:37:24;13.63;;;7.97;;
51692;SDS011;37777;53.066;21.638;2022-12-29T04:44:26;15.27;;;7.70;;
51692;SDS011;37777;53.066;21.638;2022-12-29T04:51:28;12.10;;;6.65;;
51692;SDS011;37777;53.066;21.638;2022-12-29T04:58:30;12.07;;;6.55;;
51692;SDS011;37777;53.066;21.638;2022-12-29T05:05:32;9.75;;;5.68;;
51692;SDS011;37777;53.066;21.638;2022-12-29T05:12:35;15.65;;;6.50;;
51692;SDS011;37777;53.066;21.638;2022-12-29T05:19:37;12.35;;;6.88;;
51692;SDS011;37777;53.066;21.638;2022-12-29T05:26:39;11.20;;;6.75;;
51692;SDS011;37777;53.066;21.638;2022-12-29T05:33:41;17.55;;;6.88;;
51692;SDS011;37777;53.066;21.638;2022-12-29T05:40:44;11.68;;;6.82;;
51692;SDS011;37777;53.066;21.638;2022-12-29T05:47:46;14.35;;;6.75;;
51692;SDS011;37777;53.066;21.638;2022-12-29T05:54:48;13.90;;;7.00;;
51692;SDS011;37777;53.066;21.638;2022-12-29T06:01:50;12.85;;;7.10;;
51692;SDS011;37777;53.066;21.638;2022-12-29T06:08:52;12.85;;;7.32;;
51692;SDS011;37777;53.066;21.638;2022-12-29T06:15:54;17.02;;;6.75;;
51692;SDS011;37777;53.066;21.638;2022-12-29T06:22:56;11.70;;;6.03;;
51692;SDS011;37777;53.066;21.638;2022-12-29T06:29:58;13.57;;;7.00;;
51692;SDS011;37777;53.066;21.638;2022-12-29T06:37:00;14.25;;;7.78;;
51692;SDS011;37777;53.066;21.638;2022-12-29T06:44:03;11.52;;;7.20;;
51692;SDS011;37777;53.066;21.638;2022-12-29T06:51:05;14.73;;;6.32;;
51692;SDS011;37777;53.066;21.638;2022-12-29T06:58:07;8.07;;;5.90;;
51692;SDS011;37777;53.066;21.638;2022-12-29T07:05:09;15.32;;;6.85;;
51692;SDS011;37777;53.066;21.638;2022-12-29T07:12:11;16.40;;;6.93;;
51692;SDS011;37777;53.066;21.638;2022-12-29T07:19:14;15.95;;;7.30;;
51692;SDS011;37777;53.066;21.638;2022-12-29T07:26:17;16.88;;;7.85;;
51692;SDS011;37777;53.066;21.638;2022-12-29T07:33:19;14.90;;;6.95;;
51692;SDS011;37777;53.066;21.638;2022-12-29T07:40:21;18.80;;;7.85;;
51692;SDS011;37777;53.066;21.638;2022-12-29T07:47:23;19.00;;;7.82;;
51692;SDS011;37777;53.066;21.638;2022-12-29T07:54:25;20.17;;;8.27;;
51692;SDS011;37777;53.066;21.638;2022-12-29T08:01:27;17.92;;;7.55;;
51692;SDS011;37777;53.066;21.638;2022-12-29T08:08:30;13.50;;;7.93;;
51692;SDS011;37777;53.066;21.638;2022-12-29T08:15:31;17.45;;;8.18;;
51692;SDS011;37777;53.066;21.638;2022-12-29T08:22:34;22.52;;;8.13;;
51692;SDS011;37777;53.066;21.638;2022-12-29T08:29:36;12.50;;;7.28;;
51692;SDS011;37777;53.066;21.638;2022-12-29T08:36:38;14.50;;;6.90;;
51692;SDS011;37777;53.066;21.638;2022-12-29T08:43:40;17.67;;;8.43;;
51692;SDS011;37777;53.066;21.638;2022-12-29T08:50:43;21.27;;;8.52;;
51692;SDS011;37777;53.066;21.638;2022-12-29T08:57:45;22.13;;;7.57;;
51692;SDS011;37777;53.066;21.638;2022-12-29T09:04:47;17.45;;;7.53;;
51692;SDS011;37777;53.066;21.638;2022-12-29T09:11:49;19.92;;;8.18;;
51692;SDS011;37777;53.066;21.638;2022-12-29T09:18:51;22.85;;;9.57;;
51692;SDS011;37777;53.066;21.638;2022-12-29T09:25:53;13.25;;;7.30;;
51692;SDS011;37777;53.066;21.638;2022-12-29T09:32:56;15.77;;;7.32;;
51692;SDS011;37777;53.066;21.638;2022-12-29T09:39:58;16.13;;;6.97;;
51692;SDS011;37777;53.066;21.638;2022-12-29T09:47:00;11.05;;;6.80;;
51692;SDS011;37777;53.066;21.638;2022-12-29T09:54:10;15.38;;;6.60;;
51692;SDS011;37777;53.066;21.638;2022-12-29T10:01:32;18.73;;;7.72;;
51692;SDS011;37777;53.066;21.638;2022-12-29T10:08:44;11.88;;;6.18;;
51692;SDS011;37777;53.066;21.638;2022-12-29T10:23:22;13.50;;;6.50;;
51692;SDS011;37777;53.066;21.638;2022-12-29T10:30:28;9.68;;;5.63;;
51692;SDS011;37777;53.066;21.638;2022-12-29T10:37:45;10.05;;;6.30;;
51692;SDS011;37777;53.066;21.638;2022-12-29T10:44:58;14.43;;;6.03;;
51692;SDS011;37777;53.066;21.638;2022-12-29T10:52:02;11.43;;;5.65;;
51692;SDS011;37777;53.066;21.638;2022-12-29T10:59:12;9.48;;;4.82;;
51692;SDS011;37777;53.066;21.638;2022-12-29T11:06:26;4.10;;;3.67;;
51692;SDS011;37777;53.066;21.638;2022-12-29T11:13:33;11.55;;;5.68;;
51692;SDS011;37777;53.066;21.638;2022-12-29T11:20:40;10.60;;;5.90;;
51692;SDS011;37777;53.066;21.638;2022-12-29T11:28:02;14.02;;;6.65;;
51692;SDS011;37777;53.066;21.638;2022-12-29T11:42:35;10.43;;;6.07;;
51692;SDS011;37777;53.066;21.638;2022-12-29T11:49:42;17.42;;;6.95;;
51692;SDS011;37777;53.066;21.638;2022-12-29T11:56:51;14.00;;;6.85;;
51692;SDS011;37777;53.066;21.638;2022-12-29T12:04:01;13.10;;;6.75;;
51692;SDS011;37777;53.066;21.638;2022-12-29T12:11:18;20.10;;;6.88;;
51692;SDS011;37777;53.066;21.638;2022-12-29T12:18:38;14.32;;;7.32;;
51692;SDS011;37777;53.066;21.638;2022-12-29T12:25:51;14.82;;;6.60;;
51692;SDS011;37777;53.066;21.638;2022-12-29T12:33:22;16.75;;;7.13;;
51692;SDS011;37777;53.066;21.638;2022-12-29T12:40:25;19.30;;;7.72;;
51692;SDS011;37777;53.066;21.638;2022-12-29T13:09:42;18.83;;;7.50;;
51692;SDS011;37777;53.066;21.638;2022-12-29T13:39:30;13.75;;;6.20;;
51692;SDS011;37777;53.066;21.638;2022-12-29T13:46:36;12.90;;;6.55;;
51692;SDS011;37777;53.066;21.638;2022-12-29T13:54:00;14.07;;;7.53;;
51692;SDS011;37777;53.066;21.638;2022-12-29T14:08:05;10.35;;;5.50;;
51692;SDS011;37777;53.066;21.638;2022-12-29T14:22:12;16.10;;;7.50;;
51692;SDS011;37777;53.066;21.638;2022-12-29T14:43:40;18.75;;;6.75;;
51692;SDS011;37777;53.066;21.638;2022-12-29T14:50:42;22.00;;;10.00;;
51692;SDS011;37777;53.066;21.638;2022-12-29T14:57:52;16.30;;;8.18;;
51692;SDS011;37777;53.066;21.638;2022-12-29T15:05:00;19.58;;;9.30;;
51692;SDS011;37777;53.066;21.638;2022-12-29T15:12:11;21.45;;;9.45;;
51692;SDS011;37777;53.066;21.638;2022-12-29T15:19:23;22.00;;;8.95;;
51692;SDS011;37777;53.066;21.638;2022-12-29T15:26:37;35.35;;;12.10;;
51692;SDS011;37777;53.066;21.638;2022-12-29T15:33:41;22.17;;;10.50;;
51692;SDS011;37777;53.066;21.638;2022-12-29T15:40:46;25.90;;;10.23;;
51692;SDS011;37777;53.066;21.638;2022-12-29T15:47:48;28.90;;;11.63;;
51692;SDS011;37777;53.066;21.638;2022-12-29T15:54:52;30.05;;;12.13;;
51692;SDS011;37777;53.066;21.638;2022-12-29T16:01:55;28.00;;;10.70;;
51692;SDS011;37777;53.066;21.638;2022-12-29T16:09:05;22.15;;;9.88;;
51692;SDS011;37777;53.066;21.638;2022-12-29T16:16:16;29.58;;;13.40;;
51692;SDS011;37777;53.066;21.638;2022-12-29T16:23:24;24.23;;;11.50;;
51692;SDS011;37777;53.066;21.638;2022-12-29T16:30:28;32.33;;;13.98;;
51692;SDS011;37777;53.066;21.638;2022-12-29T16:37:34;26.90;;;12.68;;
51692;SDS011;37777;53.066;21.638;2022-12-29T16:44:40;24.63;;;10.65;;
51692;SDS011;37777;53.066;21.638;2022-12-29T16:51:43;37.00;;;13.68;;
51692;SDS011;37777;53.066;21.638;2022-12-29T16:58:48;25.63;;;10.80;;
51692;SDS011;37777;53.066;21.638;2022-12-29T17:05:54;19.38;;;9.88;;
51692;SDS011;37777;53.066;21.638;2022-12-29T17:12:58;32.53;;;11.90;;
51692;SDS011;37777;53.066;21.638;2022-12-29T17:20:02;29.27;;;10.93;;
51692;SDS011;37777;53.066;21.638;2022-12-29T17:27:06;32.35;;;11.75;;
51692;SDS011;37777;53.066;21.638;2022-12-29T17:34:19;42.88;;;14.30;;
51692;SDS011;37777;53.066;21.638;2022-12-29T17:41:21;32.88;;;15.02;;
51692;SDS011;37777;53.066;21.638;2022-12-29T17:48:23;44.45;;;16.80;;
51692;SDS011;37777;53.066;21.638;2022-12-29T17:55:26;28.65;;;12.60;;
51692;SDS011;37777;53.066;21.638;2022-12-29T18:02:37;19.23;;;10.57;;
51692;SDS011;37777;53.066;21.638;2022-12-29T18:09:39;20.75;;;9.38;;
51692;SDS011;37777;53.066;21.638;2022-12-29T18:16:42;34.47;;;13.55;;
51692;SDS011;37777;53.066;21.638;2022-12-29T18:23:44;68.15;;;19.95;;
51692;SDS011;37777;53.066;21.638;2022-12-29T18:30:47;55.47;;;18.33;;
51692;SDS011;37777;53.066;21.638;2022-12-29T18:37:49;37.88;;;14.68;;
51692;SDS011;37777;53.066;21.638;2022-12-29T18:44:51;15.90;;;6.20;;
51692;SDS011;37777;53.066;21.638;2022-12-29T18:51:53;16.77;;;8.93;;
51692;SDS011;37777;53.066;21.638;2022-12-29T18:58:55;16.40;;;7.85;;
51692;SDS011;37777;53.066;21.638;2022-12-29T19:05:58;17.55;;;8.48;;
51692;SDS011;37777;53.066;21.638;2022-12-29T19:13:01;23.10;;;9.20;;
51692;SDS011;37777;53.066;21.638;2022-12-29T19:20:03;16.20;;;8.15;;
51692;SDS011;37777;53.066;21.638;2022-12-29T19:27:06;21.50;;;9.05;;
51692;SDS011;37777;53.066;21.638;2022-12-29T19:34:09;16.33;;;8.55;;
51692;SDS011;37777;53.066;21.638;2022-12-29T19:41:14;20.67;;;8.77;;
51692;SDS011;37777;53.066;21.638;2022-12-29T19:48:17;23.60;;;8.88;;
51692;SDS011;37777;53.066;21.638;2022-12-29T19:55:21;19.25;;;8.07;;
51692;SDS011;37777;53.066;21.638;2022-12-29T20:02:24;31.30;;;11.00;;
51692;SDS011;37777;53.066;21.638;2022-12-29T20:09:27;23.00;;;10.05;;
51692;SDS011;37777;53.066;21.638;2022-12-29T20:16:30;23.08;;;9.88;;
51692;SDS011;37777;53.066;21.638;2022-12-29T20:23:32;22.08;;;11.57;;
51692;SDS011;37777;53.066;21.638;2022-12-29T20:30:35;32.20;;;11.90;;
51692;SDS011;37777;53.066;21.638;2022-12-29T20:37:38;24.95;;;11.00;;
51692;SDS011;37777;53.066;21.638;2022-12-29T20:44:40;24.77;;;11.25;;
51692;SDS011;37777;53.066;21.638;2022-12-29T20:51:43;22.17;;;8.52;;
51692;SDS011;37777;53.066;21.638;2022-12-29T20:59:06;20.90;;;9.63;;
51692;SDS011;37777;53.066;21.638;2022-12-29T21:06:27;24.42;;;10.23;;
51692;SDS011;37777;53.066;21.638;2022-12-29T21:13:30;19.95;;;8.60;;
51692;SDS011;37777;53.066;21.638;2022-12-29T21:20:32;17.90;;;8.25;;
51692;SDS011;37777;53.066;21.638;2022-12-29T21:27:34;22.65;;;9.32;;
51692;SDS011;37777;53.066;21.638;2022-12-29T21:34:36;18.23;;;8.18;;
51692;SDS011;37777;53.066;21.638;2022-12-29T21:41:39;22.90;;;8.35;;
51692;SDS011;37777;53.066;21.638;2022-12-29T21:48:41;22.30;;;9.45;;
51692;SDS011;37777;53.066;21.638;2022-12-29T21:55:43;20.38;;;9.00;;
51692;SDS011;37777;53.066;21.638;2022-12-29T22:02:45;17.42;;;9.25;;
51692;SDS011;37777;53.066;21.638;2022-12-29T22:10:06;31.02;;;11.00;;
51692;SDS011;37777;53.066;21.638;2022-12-29T22:17:26;23.80;;;10.20;;
51692;SDS011;37777;53.066;21.638;2022-12-29T22:24:31;24.77;;;10.07;;
51692;SDS011;37777;53.066;21.638;2022-12-29T22:31:33;19.85;;;8.18;;
51692;SDS011;37777;53.066;21.638;2022-12-29T22:38:35;20.75;;;8.40;;
51692;SDS011;37777;53.066;21.638;2022-12-29T22:45:37;18.40;;;8.57;;
51692;SDS011;37777;53.066;21.638;2022-12-29T22:52:40;21.35;;;9.20;;
51692;SDS011;37777;53.066;21.638;2022-12-29T22:59:42;24.90;;;8.48;;
51692;SDS011;37777;53.066;21.638;2022-12-29T23:06:44;17.75;;;8.43;;
51692;SDS011;37777;53.066;21.638;2022-12-29T23:13:46;16.42;;;8.02;;
51692;SDS011;37777;53.066;21.638;2022-12-29T23:20:48;20.33;;;9.40;;
51692;SDS011;37777;53.066;21.638;2022-12-29T23:27:50;16.25;;;8.27;;
51692;SDS011;37777;53.066;21.638;2022-12-29T23:34:52;17.80;;;7.53;;
51692;SDS011;37777;53.066;21.638;2022-12-29T23:41:55;17.38;;;9.00;;
51692;SDS011;37777;53.066;21.638;2022-12-29T23:48:57;22.08;;;7.40;;
51692;SDS011;37777;53.066;21.638;2022-12-29T23:55:59;17.08;;;8.35;;
